Time;durP1;ratioP1;P1;durP2;ratioP2;P2;SDS_P1;SDS_P2;PMS_P1;PMS_P2;Temp;Humidity;BMP_temperature;BMP_pressure;BME280_temperature;BME280_humidity;BME280_pressure;Samples;Min_cycle;Max_cycle;Signal;HPM_P1;HPM_P2
2022/07/03 00:01:03;;;;;;;;;;;;;;;;;;5091066;28;20318;-68
2022/07/03 00:03:29;;;;;;;;;;;;;;;;;;5091924;28;20002;-68
2022/07/03 00:05:55;;;;;;;;;;;;;;;;;;5091789;28;20331;-68
2022/07/03 00:08:21;;;;;;;;;;;;;;;;;;5091156;28;19920;-68
2022/07/03 00:10:47;;;;;;;;;;;;;;;;;;5095111;28;19920;-68
2022/07/03 00:13:13;;;;;;;;;;;;;;;;;;5095437;28;19964;-68
2022/07/03 00:15:39;;;;;;;;;;;;;;;;;;5094833;28;20252;-68
2022/07/03 00:18:05;;;;;;;;;;;;;;;;;;5095342;28;19920;-68
2022/07/03 00:20:31;;;;;;;;;;;;;;;;;;5095461;28;19943;-68
2022/07/03 00:22:58;;;;;;;;;;;;;;;;;;5094840;28;19920;-68
2022/07/03 00:25:24;;;;;;;;;;;;;;;;;;5092326;28;19924;-68
2022/07/03 00:27:51;;;;;;;;;;;;;;;;;;5075160;28;20270;-68
2022/07/03 00:30:17;;;;;;;;;;;;;;;;;;5074627;28;19920;-68
2022/07/03 00:32:43;;;;;;;;;;;;;;;;;;5074953;28;19928;-68
2022/07/03 00:35:09;;;;;;;;;;;;;;;;;;5075123;28;20377;-68
2022/07/03 00:37:35;;;;;;;;;;;;;;;;;;5074336;28;20006;-68
2022/07/03 00:40:01;;;;;;;;;;;;;;;;;;5075123;28;19943;-68
2022/07/03 00:42:27;;;;;;;;;;;;;;;;;;5074792;28;19951;-68
2022/07/03 00:44:53;;;;;;;;;;;;;;;;;;5074038;28;19925;-68
2022/07/03 00:47:19;;;;;;;;;;;;;;;;;;5075281;28;19951;-68
2022/07/03 00:49:45;;;;;;;;;;;;;;;;;;5074743;28;19921;-68
2022/07/03 00:52:11;;;;;;;;;;;;;;;;;;5074257;28;20290;-68
2022/07/03 00:54:37;;;;;;;;;;;;;;;;;;5073184;28;19975;-68
2022/07/03 00:57:03;;;;;;;;;;;;;;;;;;5074730;28;19960;-68
2022/07/03 00:59:29;;;;;;;;;;;;;;;;;;5074315;28;19966;-68
2022/07/03 01:01:55;;;;;;;;;;;;;;;;;;5074559;28;20019;-68
2022/07/03 01:04:22;;;;;;;;;;;;;;;;;;5074735;28;19920;-68
2022/07/03 01:06:48;;;;;;;;;;;;;;;;;;5074224;28;19970;-68
2022/07/03 01:09:13;;;;;;;;;;;;;;;;;;5074385;28;20375;-68
2022/07/03 01:11:39;;;;;;;;;;;;;;;;;;5074540;28;19921;-68
2022/07/03 01:14:06;;;;;;;;;;;;;;;;;;5073909;28;19920;-68
2022/07/03 01:16:32;;;;;;;;;;;;;;;;;;5074426;28;19974;-68
2022/07/03 01:18:58;;;;;;;;;;;;;;;;;;5074660;28;19925;-68
2022/07/03 01:21:24;;;;;;;;;;;;;;;;;;5073429;28;20043;-68
2022/07/03 01:23:50;;;;;;;;;;;;;;;;;;5073907;28;19924;-68
2022/07/03 01:26:16;;;;;;;;;;;;;;;;;;5084323;28;19973;-68
2022/07/03 01:28:42;;;;;;;;;;;;;;;;;;5094203;28;20023;-68
2022/07/03 01:31:08;;;;;;;;;;;;;;;;;;5093436;28;19927;-68
2022/07/03 01:33:34;;;;;;;;;;;;;;;;;;5094037;28;19930;-68
2022/07/03 01:36:00;;;;;;;;;;;;;;;;;;5093905;28;19920;-68
2022/07/03 01:38:26;;;;;;;;;;;;;;;;;;5093294;28;20445;-68
2022/07/03 01:40:53;;;;;;;;;;;;;;;;;;5093556;28;19928;-68
2022/07/03 01:43:19;;;;;;;;;;;;;;;;;;5093604;28;20394;-68
2022/07/03 01:45:45;;;;;;;;;;;;;;;;;;5093067;28;20003;-68
2022/07/03 01:48:11;;;;;;;;;;;;;;;;;;5093824;28;19920;-68
2022/07/03 01:50:37;;;;;;;;;;;;;;;;;;5093487;28;20016;-68
2022/07/03 01:53:03;;;;;;;;;;;;;;;;;;5092929;28;19924;-68
2022/07/03 01:55:29;;;;;;;;;;;;;;;;;;5093438;28;19927;-68
2022/07/03 01:57:55;;;;;;;;;;;;;;;;;;5093322;28;19920;-68
2022/07/03 02:00:21;;;;;;;;;;;;;;;;;;5092845;28;20022;-68
2022/07/03 02:02:47;;;;;;;;;;;;;;;;;;5093244;28;19924;-68
2022/07/03 02:05:13;;;;;;;;;;;;;;;;;;5092362;28;20389;-68
2022/07/03 02:07:38;;;;;;;;;;;;;;;;;;5092660;28;19942;-68
2022/07/03 02:10:05;;;;;;;;;;;;;;;;;;5091603;28;19928;-68
2022/07/03 02:12:31;;;;;;;;;;;;;;;;;;5093260;28;19927;-68
2022/07/03 02:14:57;;;;;;;;;;;;;;;;;;5092392;28;19919;-68
2022/07/03 02:17:23;;;;;;;;;;;;;;;;;;5093036;28;20285;-68
2022/07/03 02:19:52;;;;;;;;;;;;;;;;;;5093060;28;19942;-68
2022/07/03 02:22:18;;;;;;;;;;;;;;;;;;5092277;28;19924;-68
2022/07/03 02:24:47;;;;;;;;;;;;;;;;;;5092962;28;19931;-68
2022/07/03 02:27:12;;;;;;;;;;;;;;;;;;5074430;28;19924;-68
2022/07/03 02:29:39;;;;;;;;;;;;;;;;;;5072162;28;19921;-68
2022/07/03 02:32:05;;;;;;;;;;;;;;;;;;5072294;28;20008;-68
2022/07/03 02:34:32;;;;;;;;;;;;;;;;;;5072578;28;20073;-68
2022/07/03 02:36:58;;;;;;;;;;;;;;;;;;5071854;28;19920;-68
2022/07/03 02:39:24;;;;;;;;;;;;;;;;;;5072268;28;20346;-68
2022/07/03 02:41:50;;;;;;;;;;;;;;;;;;5072146;28;20356;-68
2022/07/03 02:44:16;;;;;;;;;;;;;;;;;;5071317;28;20016;-68
2022/07/03 02:46:51;;;;;;;;;;;;;;;;;;5072085;28;20009;-68
2022/07/03 02:49:17;;;;;;;;;;;;;;;;;;5072475;28;20035;-68
2022/07/03 02:51:43;;;;;;;;;;;;;;;;;;5071350;28;20023;-68
2022/07/03 02:54:09;;;;;;;;;;;;;;;;;;5072199;28;19920;-68
2022/07/03 02:56:35;;;;;;;;;;;;;;;;;;5070744;28;20003;-68
2022/07/03 02:59:01;;;;;;;;;;;;;;;;;;5071579;28;19943;-68
2022/07/03 03:01:27;;;;;;;;;;;;;;;;;;5071994;28;20255;-68
2022/07/03 03:03:53;;;;;;;;;;;;;;;;;;5072209;28;19989;-68
2022/07/03 03:06:18;;;;;;;;;;;;;;;;;;5071392;28;19920;-68
2022/07/03 03:08:44;;;;;;;;;;;;;;;;;;5072084;28;19928;-68
2022/07/03 03:11:10;;;;;;;;;;;;;;;;;;5071925;28;20033;-68
2022/07/03 03:13:36;;;;;;;;;;;;;;;;;;5071344;28;19982;-68
2022/07/03 03:16:02;;;;;;;;;;;;;;;;;;5071903;28;19921;-68
2022/07/03 03:18:28;;;;;;;;;;;;;;;;;;5071915;28;19960;-68
2022/07/03 03:20:55;;;;;;;;;;;;;;;;;;5071110;28;20003;-68
2022/07/03 03:23:21;;;;;;;;;;;;;;;;;;5071880;28;19920;-68
2022/07/03 03:25:47;;;;;;;;;;;;;;;;;;5078022;28;20373;-68
2022/07/03 03:28:13;;;;;;;;;;;;;;;;;;5091309;28;19989;-68
2022/07/03 03:30:39;;;;;;;;;;;;;;;;;;5091981;28;19922;-68
2022/07/03 03:33:08;;;;;;;;;;;;;;;;;;5091998;28;20256;-68
2022/07/03 03:35:34;;;;;;;;;;;;;;;;;;5091291;28;20391;-68
2022/07/03 03:37:59;;;;;;;;;;;;;;;;;;5091845;28;19934;-68
2022/07/03 03:40:25;;;;;;;;;;;;;;;;;;5091468;28;19981;-68
2022/07/03 03:42:51;;;;;;;;;;;;;;;;;;5090998;28;19924;-68
2022/07/03 03:45:17;;;;;;;;;;;;;;;;;;5094729;28;19928;-68
2022/07/03 03:47:43;;;;;;;;;;;;;;;;;;5095767;28;19924;-68
2022/07/03 03:50:09;;;;;;;;;;;;;;;;;;5095134;28;19920;-68
2022/07/03 03:52:35;;;;;;;;;;;;;;;;;;5095565;28;20010;-68
2022/07/03 03:55:01;;;;;;;;;;;;;;;;;;5095452;28;19920;-68
2022/07/03 03:57:27;;;;;;;;;;;;;;;;;;5094935;28;19920;-68
2022/07/03 03:59:53;;;;;;;;;;;;;;;;;;5095604;28;19924;-68
2022/07/03 04:02:19;;;;;;;;;;;;;;;;;;5095428;28;20006;-68
2022/07/03 04:04:45;;;;;;;;;;;;;;;;;;5094980;28;19924;-68
2022/07/03 04:07:11;;;;;;;;;;;;;;;;;;5095429;28;20065;-68
2022/07/03 04:09:37;;;;;;;;;;;;;;;;;;5095379;28;19931;-68
2022/07/03 04:12:03;;;;;;;;;;;;;;;;;;5094618;28;19930;-68
2022/07/03 04:14:29;;;;;;;;;;;;;;;;;;5095204;28;19973;-68
2022/07/03 04:16:54;;;;;;;;;;;;;;;;;;5095437;28;19924;-68
2022/07/03 04:19:20;;;;;;;;;;;;;;;;;;5094755;28;19924;-68
2022/07/03 04:21:46;;;;;;;;;;;;;;;;;;5095054;28;20024;-68
2022/07/03 04:24:12;;;;;;;;;;;;;;;;;;5095151;28;19947;-68
2022/07/03 04:26:38;;;;;;;;;;;;;;;;;;5080889;28;19990;-68
2022/07/03 04:29:05;;;;;;;;;;;;;;;;;;5074717;28;19999;-68
2022/07/03 04:31:31;;;;;;;;;;;;;;;;;;5074761;28;19924;-68
2022/07/03 04:33:57;;;;;;;;;;;;;;;;;;5074134;28;20348;-68
2022/07/03 04:36:23;;;;;;;;;;;;;;;;;;5074617;28;19932;-68
2022/07/03 04:38:49;;;;;;;;;;;;;;;;;;5074590;28;20428;-68
2022/07/03 04:41:15;;;;;;;;;;;;;;;;;;5074215;28;20278;-68
2022/07/03 04:43:41;;;;;;;;;;;;;;;;;;5073889;28;19924;-68
2022/07/03 04:46:07;;;;;;;;;;;;;;;;;;5074406;28;20266;-68
2022/07/03 04:48:33;;;;;;;;;;;;;;;;;;5074506;28;19971;-68
2022/07/03 04:50:59;;;;;;;;;;;;;;;;;;5073705;28;19959;-68
2022/07/03 04:53:25;;;;;;;;;;;;;;;;;;5074280;28;19947;-68
2022/07/03 04:55:50;;;;;;;;;;;;;;;;;;5073151;28;19924;-68
2022/07/03 04:58:16;;;;;;;;;;;;;;;;;;5072485;28;19920;-68
2022/07/03 05:00:42;;;;;;;;;;;;;;;;;;5074164;28;19929;-68
2022/07/03 05:03:08;;;;;;;;;;;;;;;;;;5074339;28;20288;-68
2022/07/03 05:05:34;;;;;;;;;;;;;;;;;;5073598;28;19925;-68
2022/07/03 05:08:00;;;;;;;;;;;;;;;;;;5074235;28;20343;-68
2022/07/03 05:10:26;;;;;;;;;;;;;;;;;;5074145;28;19921;-68
2022/07/03 05:12:52;;;;;;;;;;;;;;;;;;5073584;28;20350;-68
2022/07/03 05:15:18;;;;;;;;;;;;;;;;;;5074116;28;19955;-68
2022/07/03 05:17:44;;;;;;;;;;;;;;;;;;5072584;28;19928;-68
2022/07/03 05:20:27;;;;;;;;;;;;;;;;;;5073493;28;19966;-68
2022/07/03 05:22:53;;;;;;;;;;;;;;;;;;5073655;28;19924;-68
2022/07/03 05:25:19;;;;;;;;;;;;;;;;;;5076349;28;19921;-68
2022/07/03 05:27:45;;;;;;;;;;;;;;;;;;5093424;28;19920;-68
2022/07/03 05:30:11;;;;;;;;;;;;;;;;;;5094107;28;19943;-68
2022/07/03 05:32:37;;;;;;;;;;;;;;;;;;5093825;28;19967;-68
2022/07/03 05:35:03;;;;;;;;;;;;;;;;;;5092959;28;19924;-68
2022/07/03 05:37:29;;;;;;;;;;;;;;;;;;5093681;28;20379;-68
2022/07/03 05:39:55;;;;;;;;;;;;;;;;;;5093823;28;20011;-68
2022/07/03 05:42:21;;;;;;;;;;;;;;;;;;5092826;28;20401;-68
2022/07/03 05:44:47;;;;;;;;;;;;;;;;;;5093235;28;19928;-68
2022/07/03 05:47:13;;;;;;;;;;;;;;;;;;5093508;28;19927;-68
2022/07/03 05:49:39;;;;;;;;;;;;;;;;;;5092975;28;19955;-68
2022/07/03 05:52:05;;;;;;;;;;;;;;;;;;5093324;28;19924;-68
2022/07/03 05:54:31;;;;;;;;;;;;;;;;;;5093543;28;19920;-68
2022/07/03 05:56:57;;;;;;;;;;;;;;;;;;5092775;28;20024;-68
2022/07/03 05:59:22;;;;;;;;;;;;;;;;;;5093382;28;19924;-68
2022/07/03 06:01:48;;;;;;;;;;;;;;;;;;5092187;28;20286;-68
2022/07/03 06:04:14;;;;;;;;;;;;;;;;;;5092632;28;20002;-68
2022/07/03 06:06:40;;;;;;;;;;;;;;;;;;5093250;28;19952;-68
2022/07/03 06:09:06;;;;;;;;;;;;;;;;;;5093068;28;19924;-68
2022/07/03 06:11:32;;;;;;;;;;;;;;;;;;5092559;28;20644;-68
2022/07/03 06:13:58;;;;;;;;;;;;;;;;;;5093111;28;19920;-68
2022/07/03 06:16:24;;;;;;;;;;;;;;;;;;5091630;28;19931;-68
2022/07/03 06:18:50;;;;;;;;;;;;;;;;;;5092482;28;19927;-68
2022/07/03 06:21:16;;;;;;;;;;;;;;;;;;5092700;28;19930;-68
2022/07/03 06:23:42;;;;;;;;;;;;;;;;;;5093168;28;20023;-68
2022/07/03 06:26:08;;;;;;;;;;;;;;;;;;5082848;28;20003;-68
2022/07/03 06:28:34;;;;;;;;;;;;;;;;;;5072840;28;20149;-68
2022/07/03 06:31:00;;;;;;;;;;;;;;;;;;5072705;28;19974;-68
2022/07/03 06:33:26;;;;;;;;;;;;;;;;;;5072345;28;19924;-68
2022/07/03 06:35:52;;;;;;;;;;;;;;;;;;5072249;28;19924;-68
2022/07/03 06:38:18;;;;;;;;;;;;;;;;;;5072528;28;19927;-68
2022/07/03 06:40:44;;;;;;;;;;;;;;;;;;5071756;28;19960;-68
2022/07/03 06:43:09;;;;;;;;;;;;;;;;;;5072464;28;19920;-68
2022/07/03 06:45:35;;;;;;;;;;;;;;;;;;5071967;28;19939;-68
2022/07/03 06:48:01;;;;;;;;;;;;;;;;;;5071637;28;19963;-68
2022/07/03 06:50:27;;;;;;;;;;;;;;;;;;5070737;28;20183;-68
2022/07/03 06:52:53;;;;;;;;;;;;;;;;;;5072123;28;19920;-68
2022/07/03 06:55:19;;;;;;;;;;;;;;;;;;5071509;28;19920;-68
2022/07/03 06:57:45;;;;;;;;;;;;;;;;;;5072115;28;19995;-68
2022/07/03 07:00:11;;;;;;;;;;;;;;;;;;5072173;28;19943;-68
2022/07/03 07:02:37;;;;;;;;;;;;;;;;;;5071542;28;20007;-68
2022/07/03 07:05:03;;;;;;;;;;;;;;;;;;5072149;28;19947;-68
2022/07/03 07:07:29;;;;;;;;;;;;;;;;;;5072183;28;19928;-68
2022/07/03 07:09:55;;;;;;;;;;;;;;;;;;5071598;28;19925;-68
2022/07/03 07:12:21;;;;;;;;;;;;;;;;;;5072192;28;20290;-68
2022/07/03 07:14:46;;;;;;;;;;;;;;;;;;5070673;28;20383;-68
2022/07/03 07:17:12;;;;;;;;;;;;;;;;;;5071596;28;19932;-68
2022/07/03 07:19:38;;;;;;;;;;;;;;;;;;5071084;28;19925;-68
2022/07/03 07:22:04;;;;;;;;;;;;;;;;;;5071665;28;19929;-68
2022/07/03 07:24:30;;;;;;;;;;;;;;;;;;5069775;28;19920;-68
2022/07/03 07:26:56;;;;;;;;;;;;;;;;;;5088039;28;20297;-68
2022/07/03 07:29:22;;;;;;;;;;;;;;;;;;5092191;28;19927;-68
2022/07/03 07:31:48;;;;;;;;;;;;;;;;;;5091228;28;19947;-68
2022/07/03 07:34:14;;;;;;;;;;;;;;;;;;5092012;28;19931;-68
2022/07/03 07:36:40;;;;;;;;;;;;;;;;;;5090605;28;19920;-68
2022/07/03 07:39:06;;;;;;;;;;;;;;;;;;5091179;28;19920;-68
2022/07/03 07:41:32;;;;;;;;;;;;;;;;;;5091719;28;19924;-68
2022/07/03 07:43:58;;;;;;;;;;;;;;;;;;5091348;28;19990;-68
2022/07/03 07:46:24;;;;;;;;;;;;;;;;;;5090712;28;19973;-68
2022/07/03 07:48:50;;;;;;;;;;;;;;;;;;5091845;28;20028;-68
2022/07/03 07:51:16;;;;;;;;;;;;;;;;;;5091210;28;19920;-68
2022/07/03 07:53:42;;;;;;;;;;;;;;;;;;5091430;28;19931;-68
2022/07/03 07:56:08;;;;;;;;;;;;;;;;;;5091419;28;20294;-68
2022/07/03 07:58:34;;;;;;;;;;;;;;;;;;5091720;28;20009;-68
2022/07/03 08:06:29;;;;;;;;;;;;;;;;;;5091774;28;20316;-68
2022/07/03 08:08:55;;;;;;;;;;;;;;;;;;5090951;28;20057;-68
2022/07/03 08:11:21;;;;;;;;;;;;;;;;;;5091598;28;19924;-68
2022/07/03 08:13:47;;;;;;;;;;;;;;;;;;5091605;28;19959;-68
2022/07/03 08:16:13;;;;;;;;;;;;;;;;;;5090588;28;19943;-68
2022/07/03 08:18:39;;;;;;;;;;;;;;;;;;5091217;28;19927;-68
2022/07/03 08:21:05;;;;;;;;;;;;;;;;;;5091200;28;19936;-68
2022/07/03 08:23:31;;;;;;;;;;;;;;;;;;5090979;28;20319;-68
2022/07/03 08:25:57;;;;;;;;;;;;;;;;;;5083823;28;19951;-68
2022/07/03 08:28:23;;;;;;;;;;;;;;;;;;5071319;28;19967;-68
2022/07/03 08:30:49;;;;;;;;;;;;;;;;;;5072512;28;20011;-68
2022/07/03 08:33:15;;;;;;;;;;;;;;;;;;5074739;28;19931;-68
2022/07/03 08:35:41;;;;;;;;;;;;;;;;;;5074695;28;20011;-68
2022/07/03 08:38:06;;;;;;;;;;;;;;;;;;5074429;28;20294;-68
2022/07/03 08:40:32;;;;;;;;;;;;;;;;;;5074388;28;19924;-68
2022/07/03 08:43:00;;;;;;;;;;;;;;;;;;5074583;28;19932;-68
2022/07/03 08:45:27;;;;;;;;;;;;;;;;;;5074529;28;19924;-68
2022/07/03 08:47:53;;;;;;;;;;;;;;;;;;5074166;28;19932;-68
2022/07/03 08:50:18;;;;;;;;;;;;;;;;;;5074543;28;20378;-68
2022/07/03 08:52:44;;;;;;;;;;;;;;;;;;5074418;28;19924;-68
2022/07/03 08:55:10;;;;;;;;;;;;;;;;;;5073678;28;19921;-68
2022/07/03 08:57:36;;;;;;;;;;;;;;;;;;5074331;28;19928;-68
2022/07/03 09:00:03;;;;;;;;;;;;;;;;;;5074260;28;19924;-68
2022/07/03 09:02:29;;;;;;;;;;;;;;;;;;5073540;28;19921;-68
2022/07/03 09:04:57;;;;;;;;;;;;;;;;;;5074248;28;19939;-68
2022/07/03 09:07:23;;;;;;;;;;;;;;;;;;5073924;28;20256;-68
2022/07/03 09:09:48;;;;;;;;;;;;;;;;;;5073531;28;19974;-68
2022/07/03 09:12:15;;;;;;;;;;;;;;;;;;5073868;28;20295;-68
2022/07/03 09:14:41;;;;;;;;;;;;;;;;;;5074016;28;19928;-68
2022/07/03 09:17:08;;;;;;;;;;;;;;;;;;5073165;28;19920;-68
2022/07/03 09:19:33;;;;;;;;;;;;;;;;;;5073550;28;20019;-68
2022/07/03 09:21:59;;;;;;;;;;;;;;;;;;5073724;28;20004;-68
2022/07/03 09:24:25;;;;;;;;;;;;;;;;;;5073198;28;19928;-68
2022/07/03 09:26:51;;;;;;;;;;;;;;;;;;5088990;28;19943;-68
2022/07/03 09:29:17;;;;;;;;;;;;;;;;;;5093593;28;20278;-68
2022/07/03 09:31:43;;;;;;;;;;;;;;;;;;5093047;28;19920;-68
2022/07/03 09:34:09;;;;;;;;;;;;;;;;;;5093851;28;19920;-68
2022/07/03 09:36:35;;;;;;;;;;;;;;;;;;5093510;28;20015;-68
2022/07/03 09:39:01;;;;;;;;;;;;;;;;;;5093105;28;19984;-68
2022/07/03 09:41:27;;;;;;;;;;;;;;;;;;5092752;28;19977;-68
2022/07/03 09:43:53;;;;;;;;;;;;;;;;;;5093264;28;19951;-69
2022/07/03 09:46:19;;;;;;;;;;;;;;;;;;5092607;28;19920;-69
2022/07/03 09:48:45;;;;;;;;;;;;;;;;;;5093277;28;19924;-69
2022/07/03 09:51:11;;;;;;;;;;;;;;;;;;5093251;28;19920;-69
2022/07/03 09:53:36;;;;;;;;;;;;;;;;;;5092716;28;19924;-69
2022/07/03 09:56:02;;;;;;;;;;;;;;;;;;5093183;28;19927;-69
2022/07/03 09:58:28;;;;;;;;;;;;;;;;;;5093302;28;19975;-69
2022/07/03 10:00:54;;;;;;;;;;;;;;;;;;5092484;28;19931;-69
2022/07/03 10:03:20;;;;;;;;;;;;;;;;;;5093297;28;20006;-69
2022/07/03 10:05:46;;;;;;;;;;;;;;;;;;5093223;28;19974;-69
2022/07/03 10:08:12;;;;;;;;;;;;;;;;;;5091436;28;19920;-69
2022/07/03 10:10:38;;;;;;;;;;;;;;;;;;5092787;28;20019;-69
2022/07/03 10:13:04;;;;;;;;;;;;;;;;;;5093038;28;19932;-69
2022/07/03 10:15:30;;;;;;;;;;;;;;;;;;5092300;28;19920;-69
2022/07/03 10:17:56;;;;;;;;;;;;;;;;;;5092510;28;19920;-69
2022/07/03 10:20:22;;;;;;;;;;;;;;;;;;5092970;28;19943;-69
2022/07/03 10:22:48;;;;;;;;;;;;;;;;;;5092158;28;19977;-69
2022/07/03 10:25:14;;;;;;;;;;;;;;;;;;5091091;28;20061;-69
2022/07/03 10:27:40;;;;;;;;;;;;;;;;;;5072567;28;19967;-69
2022/07/03 10:30:06;;;;;;;;;;;;;;;;;;5071949;28;19920;-69
2022/07/03 10:32:32;;;;;;;;;;;;;;;;;;5071989;28;19920;-69
2022/07/03 10:34:58;;;;;;;;;;;;;;;;;;5072505;28;19946;-69
2022/07/03 10:37:25;;;;;;;;;;;;;;;;;;5071818;28;19920;-69
2022/07/03 10:39:51;;;;;;;;;;;;;;;;;;5072458;28;19927;-69
2022/07/03 10:45:02;;;;;;;;;;;;;;;;;;5071422;28;20314;-69
2022/07/03 10:47:28;;;;;;;;;;;;;;;;;;5070960;28;19927;-69
2022/07/03 10:49:53;;;;;;;;;;;;;;;;;;5070726;28;20050;-69
2022/07/03 10:52:19;;;;;;;;;;;;;;;;;;5071352;28;20015;-69
2022/07/03 10:54:45;;;;;;;;;;;;;;;;;;5071157;28;19921;-69
2022/07/03 10:57:13;;;;;;;;;;;;;;;;;;5072077;28;19921;-69
2022/07/03 10:59:43;;;;;;;;;;;;;;;;;;5071424;28;19925;-69
2022/07/03 11:02:09;;;;;;;;;;;;;;;;;;5071862;28;19936;-69
2022/07/03 11:04:36;;;;;;;;;;;;;;;;;;5072130;28;19925;-69
2022/07/03 11:07:02;;;;;;;;;;;;;;;;;;5071361;28;19924;-69
2022/07/03 11:09:28;;;;;;;;;;;;;;;;;;5071593;28;19985;-69
2022/07/03 11:11:54;;;;;;;;;;;;;;;;;;5071813;28;19931;-69
2022/07/03 11:14:20;;;;;;;;;;;;;;;;;;5071228;28;19924;-69
2022/07/03 11:16:46;;;;;;;;;;;;;;;;;;5071649;28;19921;-69
2022/07/03 11:19:12;;;;;;;;;;;;;;;;;;5071843;28;19925;-69
2022/07/03 11:21:38;;;;;;;;;;;;;;;;;;5071263;28;19925;-69
2022/07/03 11:24:04;;;;;;;;;;;;;;;;;;5071818;28;19943;-69
2022/07/03 11:26:30;;;;;;;;;;;;;;;;;;5084051;28;20077;-69
2022/07/03 11:28:56;;;;;;;;;;;;;;;;;;5091240;28;19943;-69
2022/07/03 11:31:22;;;;;;;;;;;;;;;;;;5091810;28;19920;-69
2022/07/03 11:33:48;;;;;;;;;;;;;;;;;;5092014;28;19920;-69
2022/07/03 11:36:15;;;;;;;;;;;;;;;;;;5089844;28;20080;-69
2022/07/03 11:38:41;;;;;;;;;;;;;;;;;;5092080;28;19924;-69
2022/07/03 11:41:07;;;;;;;;;;;;;;;;;;5091931;28;19927;-69
2022/07/03 11:43:36;;;;;;;;;;;;;;;;;;5091129;28;19924;-69
2022/07/03 11:46:03;;;;;;;;;;;;;;;;;;5091774;28;19931;-69
2022/07/03 11:48:29;;;;;;;;;;;;;;;;;;5092241;28;19920;-69
2022/07/03 11:50:55;;;;;;;;;;;;;;;;;;5091313;28;19935;-69
2022/07/03 11:53:21;;;;;;;;;;;;;;;;;;5092003;28;20278;-69
2022/07/03 11:55:47;;;;;;;;;;;;;;;;;;5091683;28;19951;-69
2022/07/03 11:58:13;;;;;;;;;;;;;;;;;;5091028;28;19924;-69
2022/07/03 12:00:39;;;;;;;;;;;;;;;;;;5091826;28;20359;-69
2022/07/03 12:03:06;;;;;;;;;;;;;;;;;;5091708;28;20011;-69
2022/07/03 12:05:32;;;;;;;;;;;;;;;;;;5092823;28;19931;-69
2022/07/03 12:07:58;;;;;;;;;;;;;;;;;;5094101;28;19920;-69
2022/07/03 12:10:24;;;;;;;;;;;;;;;;;;5095517;28;20270;-69
2022/07/03 12:12:50;;;;;;;;;;;;;;;;;;5094522;28;19982;-69
2022/07/03 12:15:16;;;;;;;;;;;;;;;;;;5095229;28;19927;-69
2022/07/03 12:17:42;;;;;;;;;;;;;;;;;;5095337;28;20006;-69
2022/07/03 12:20:09;;;;;;;;;;;;;;;;;;5094891;28;19943;-69
2022/07/03 12:22:37;;;;;;;;;;;;;;;;;;5095084;28;20439;-69
2022/07/03 12:25:03;;;;;;;;;;;;;;;;;;5095073;28;20015;-69
2022/07/03 12:27:29;;;;;;;;;;;;;;;;;;5074762;28;20564;-69
2022/07/03 12:29:55;;;;;;;;;;;;;;;;;;5074362;28;19924;-69
2022/07/03 12:32:20;;;;;;;;;;;;;;;;;;5074574;28;20279;-69
2022/07/03 12:34:46;;;;;;;;;;;;;;;;;;5074368;28;19960;-69
2022/07/03 12:37:12;;;;;;;;;;;;;;;;;;5073990;28;19920;-69
2022/07/03 12:39:38;;;;;;;;;;;;;;;;;;5074817;28;19920;-69
2022/07/03 12:42:04;;;;;;;;;;;;;;;;;;5074402;28;20056;-69
2022/07/03 12:44:30;;;;;;;;;;;;;;;;;;5073667;28;19932;-69
2022/07/03 12:46:56;;;;;;;;;;;;;;;;;;5074527;28;19959;-69
2022/07/03 12:49:22;;;;;;;;;;;;;;;;;;5074617;28;20007;-69
2022/07/03 12:51:48;;;;;;;;;;;;;;;;;;5073866;28;19920;-69
2022/07/03 12:54:14;;;;;;;;;;;;;;;;;;5074500;28;20032;-69
2022/07/03 12:56:40;;;;;;;;;;;;;;;;;;5072828;28;20086;-69
2022/07/03 12:59:17;;;;;;;;;;;;;;;;;;5073686;28;20450;-69
2022/07/03 13:01:43;;;;;;;;;;;;;;;;;;5073971;28;19925;-69
2022/07/03 13:04:14;;;;;;;;;;;;;;;;;;5074263;28;20010;-69
2022/07/03 13:06:40;;;;;;;;;;;;;;;;;;5073737;28;19963;-69
2022/07/03 13:09:05;;;;;;;;;;;;;;;;;;5074121;28;19927;-69
2022/07/03 13:11:31;;;;;;;;;;;;;;;;;;5074009;28;19920;-69
2022/07/03 13:13:57;;;;;;;;;;;;;;;;;;5073381;28;19920;-69
2022/07/03 13:16:24;;;;;;;;;;;;;;;;;;5072948;28;19921;-69
2022/07/03 13:18:50;;;;;;;;;;;;;;;;;;5073739;28;19999;-69
2022/07/03 13:21:16;;;;;;;;;;;;;;;;;;5072969;28;20007;-69
2022/07/03 13:23:41;;;;;;;;;;;;;;;;;;5073873;28;19942;-69
2022/07/03 13:26:07;;;;;;;;;;;;;;;;;;5082858;28;19977;-69
2022/07/03 13:28:33;;;;;;;;;;;;;;;;;;5093463;28;19920;-69
2022/07/03 13:30:59;;;;;;;;;;;;;;;;;;5093884;28;19985;-69
2022/07/03 13:33:25;;;;;;;;;;;;;;;;;;5093905;28;19989;-69
2022/07/03 13:35:51;;;;;;;;;;;;;;;;;;5093123;28;19951;-69
2022/07/03 13:38:17;;;;;;;;;;;;;;;;;;5093781;28;19969;-69
2022/07/03 13:40:44;;;;;;;;;;;;;;;;;;5093776;28;19963;-69
2022/07/03 13:43:10;;;;;;;;;;;;;;;;;;5093156;28;19924;-69
2022/07/03 13:45:36;;;;;;;;;;;;;;;;;;5093638;28;20397;-69
2022/07/03 13:48:02;;;;;;;;;;;;;;;;;;5093759;28;19931;-69
2022/07/03 13:50:29;;;;;;;;;;;;;;;;;;5092955;28;19927;-69
2022/07/03 13:52:55;;;;;;;;;;;;;;;;;;5093767;28;19979;-69
2022/07/03 13:55:21;;;;;;;;;;;;;;;;;;5093503;28;19925;-69
2022/07/03 13:57:46;;;;;;;;;;;;;;;;;;5092780;28;19920;-69
2022/07/03 14:00:15;;;;;;;;;;;;;;;;;;5093190;28;19963;-69
2022/07/03 14:02:41;;;;;;;;;;;;;;;;;;5093329;28;19920;-69
2022/07/03 14:05:07;;;;;;;;;;;;;;;;;;5092649;28;19924;-69
2022/07/03 14:07:33;;;;;;;;;;;;;;;;;;5093192;28;19927;-69
2022/07/03 14:09:59;;;;;;;;;;;;;;;;;;5091537;28;19931;-69
2022/07/03 14:12:25;;;;;;;;;;;;;;;;;;5092246;28;19973;-69
2022/07/03 14:14:51;;;;;;;;;;;;;;;;;;5092973;28;19985;-69
2022/07/03 14:17:17;;;;;;;;;;;;;;;;;;5092902;28;20270;-69
2022/07/03 14:19:43;;;;;;;;;;;;;;;;;;5090682;28;20014;-69
2022/07/03 14:22:09;;;;;;;;;;;;;;;;;;5092866;28;19920;-69
2022/07/03 14:24:35;;;;;;;;;;;;;;;;;;5092959;28;20011;-69
2022/07/03 14:32:31;;;;;;;;;;;;;;;;;;5072536;28;20315;-69
2022/07/03 14:34:57;;;;;;;;;;;;;;;;;;5071947;28;19927;-69
2022/07/03 14:37:23;;;;;;;;;;;;;;;;;;5072265;28;19959;-69
2022/07/03 14:39:49;;;;;;;;;;;;;;;;;;5072641;28;19970;-69
2022/07/03 14:42:15;;;;;;;;;;;;;;;;;;5071647;28;19922;-69
2022/07/03 14:44:41;;;;;;;;;;;;;;;;;;5072106;28;20011;-69
2022/07/03 14:47:07;;;;;;;;;;;;;;;;;;5072105;28;19974;-69
2022/07/03 14:49:33;;;;;;;;;;;;;;;;;;5071333;28;19925;-69
2022/07/03 14:51:59;;;;;;;;;;;;;;;;;;5072326;28;20446;-69
2022/07/03 14:54:25;;;;;;;;;;;;;;;;;;5072178;28;20012;-69
2022/07/03 14:56:51;;;;;;;;;;;;;;;;;;5071459;28;19943;-69
2022/07/03 14:59:17;;;;;;;;;;;;;;;;;;5072173;28;19959;-69
2022/07/03 15:01:43;;;;;;;;;;;;;;;;;;5071877;28;19932;-69
2022/07/03 15:04:09;;;;;;;;;;;;;;;;;;5071568;28;19926;-69
2022/07/03 15:06:35;;;;;;;;;;;;;;;;;;5072120;28;19932;-69
2022/07/03 15:09:01;;;;;;;;;;;;;;;;;;5072162;28;19920;-69
2022/07/03 15:14:11;;;;;;;;;;;;;;;;;;5072043;28;20290;-69
2022/07/03 15:16:37;;;;;;;;;;;;;;;;;;5071988;28;20003;-69
2022/07/03 15:19:03;;;;;;;;;;;;;;;;;;5071340;28;19925;-69
2022/07/03 15:21:30;;;;;;;;;;;;;;;;;;5071798;28;19931;-69
2022/07/03 15:23:56;;;;;;;;;;;;;;;;;;5071833;28;19974;-69
2022/07/03 15:26:22;;;;;;;;;;;;;;;;;;5082472;28;20304;-69
2022/07/03 15:28:48;;;;;;;;;;;;;;;;;;5092361;28;19920;-69
2022/07/03 15:31:14;;;;;;;;;;;;;;;;;;5092089;28;19920;-69
2022/07/03 15:33:40;;;;;;;;;;;;;;;;;;5089813;28;20007;-69
2022/07/03 15:36:06;;;;;;;;;;;;;;;;;;5091984;28;19920;-69
2022/07/03 15:38:32;;;;;;;;;;;;;;;;;;5091819;28;19943;-69
2022/07/03 15:40:58;;;;;;;;;;;;;;;;;;5093714;28;19920;-69
2022/07/03 15:43:24;;;;;;;;;;;;;;;;;;5095524;28;19928;-69
2022/07/03 15:45:50;;;;;;;;;;;;;;;;;;5096149;28;19920;-69
2022/07/03 15:48:16;;;;;;;;;;;;;;;;;;5095543;28;19931;-69
2022/07/03 15:50:41;;;;;;;;;;;;;;;;;;5096072;28;19973;-69
2022/07/03 15:53:07;;;;;;;;;;;;;;;;;;5096199;28;19926;-69
2022/07/03 15:55:33;;;;;;;;;;;;;;;;;;5095249;28;20006;-69
2022/07/03 15:57:59;;;;;;;;;;;;;;;;;;5096113;28;20034;-69
2022/07/03 16:00:27;;;;;;;;;;;;;;;;;;5096006;28;19932;-69
2022/07/03 16:02:52;;;;;;;;;;;;;;;;;;5095355;28;19928;-69
2022/07/03 16:05:19;;;;;;;;;;;;;;;;;;5095728;28;19920;-69
2022/07/03 16:07:45;;;;;;;;;;;;;;;;;;5095315;28;19924;-69
2022/07/03 16:10:11;;;;;;;;;;;;;;;;;;5094902;28;19927;-69
2022/07/03 16:12:41;;;;;;;;;;;;;;;;;;5095318;28;19943;-69
2022/07/03 16:15:07;;;;;;;;;;;;;;;;;;5095104;28;19921;-69
2022/07/03 16:17:33;;;;;;;;;;;;;;;;;;5094485;28;19931;-69
2022/07/03 16:19:59;;;;;;;;;;;;;;;;;;5093751;28;19920;-69
2022/07/03 16:22:25;;;;;;;;;;;;;;;;;;5095126;28;19977;-69
2022/07/03 16:24:51;;;;;;;;;;;;;;;;;;5094759;28;20002;-69
2022/07/03 16:27:18;;;;;;;;;;;;;;;;;;5076341;28;19947;-69
2022/07/03 16:29:44;;;;;;;;;;;;;;;;;;5074888;28;19921;-69
2022/07/03 16:32:11;;;;;;;;;;;;;;;;;;5073269;28;20343;-69
2022/07/03 16:34:36;;;;;;;;;;;;;;;;;;5073114;28;19924;-69
2022/07/03 16:37:02;;;;;;;;;;;;;;;;;;5073367;28;20451;-69
2022/07/03 16:39:28;;;;;;;;;;;;;;;;;;5072773;28;19931;-69
2022/07/03 16:41:54;;;;;;;;;;;;;;;;;;5073047;28;20019;-69
2022/07/03 16:44:23;;;;;;;;;;;;;;;;;;5073180;28;19931;-70
2022/07/03 16:46:49;;;;;;;;;;;;;;;;;;5072635;28;19932;-69
2022/07/03 16:49:15;;;;;;;;;;;;;;;;;;5073534;28;19924;-69
2022/07/03 16:51:41;;;;;;;;;;;;;;;;;;5071461;28;19927;-69
2022/07/03 16:54:08;;;;;;;;;;;;;;;;;;5072629;28;20399;-69